Time;durP1;ratioP1;P1;durP2;ratioP2;P2;SDS_P1;SDS_P2;PMS_P1;PMS_P2;Temp;Humidity;BMP_temperature;BMP_pressure;BME280_temperature;BME280_humidity;BME280_pressure;Samples;Min_cycle;Max_cycle;Signal;HPM_P1;HPM_P2
2024/03/13 00:01:17;;;;;;;29.05;15.57;;;9.40;82.50;;;;;;5060271;28;20016;-45
2024/03/13 00:03:43;;;;;;;27.77;15.00;;;9.40;82.40;;;;;;5075141;28;20020;-48
2024/03/13 00:06:09;;;;;;;30.45;15.90;;;9.40;82.30;;;;;;5069659;28;20120;-44
2024/03/13 00:08:35;;;;;;;26.67;14.68;;;9.40;82.10;;;;;;5068700;28;20045;-48
2024/03/13 00:11:00;;;;;;;28.58;15.93;;;9.40;82.20;;;;;;5070628;28;20519;-44
2024/03/13 00:13:28;;;;;;;27.40;14.52;;;9.40;82.70;;;;;;5071064;28;20032;-49
2024/03/13 00:15:53;;;;;;;24.55;13.68;;;9.40;82.80;;;;;;5066042;28;20033;-46
2024/03/13 00:18:20;;;;;;;25.67;14.50;;;9.40;83.40;;;;;;5059916;28;20039;-47
2024/03/13 00:20:46;;;;;;;31.27;15.38;;;9.30;83.10;;;;;;5065858;28;20024;-45
2024/03/13 00:23:11;;;;;;;26.58;14.05;;;9.30;83.40;;;;;;5067078;28;20093;-44
2024/03/13 00:25:37;;;;;;;26.77;13.98;;;9.30;83.50;;;;;;5064960;28;20592;-47
2024/03/13 00:28:03;;;;;;;21.80;12.77;;;9.30;83.70;;;;;;5063938;28;20450;-46
2024/03/13 00:30:29;;;;;;;30.17;15.57;;;9.30;84.20;;;;;;5073543;28;20036;-44
2024/03/13 00:32:55;;;;;;;29.02;15.00;;;9.30;84.20;;;;;;5065502;28;20408;-48
2024/03/13 00:35:20;;;;;;;32.72;16.85;;;9.30;84.50;;;;;;5064611;28;20020;-47
2024/03/13 00:37:47;;;;;;;28.17;14.77;;;9.30;84.50;;;;;;5070242;28;20111;-48
2024/03/13 00:40:13;;;;;;;31.08;15.57;;;9.30;85.90;;;;;;5063644;28;20607;-49
2024/03/13 00:42:39;;;;;;;27.13;15.07;;;9.30;84.90;;;;;;5063790;28;20054;-45
2024/03/13 00:45:05;;;;;;;31.00;15.77;;;9.30;85.30;;;;;;5065346;28;20392;-46
2024/03/13 00:47:31;;;;;;;26.58;14.00;;;9.20;85.80;;;;;;5065905;28;20599;-46
2024/03/13 00:49:57;;;;;;;26.45;14.30;;;9.20;85.80;;;;;;5067582;28;20495;-47
2024/03/13 00:52:22;;;;;;;35.08;17.10;;;9.20;85.90;;;;;;5059509;28;20037;-43
2024/03/13 00:54:48;;;;;;;28.05;15.02;;;9.20;86.10;;;;;;5061234;28;20040;-44
2024/03/13 00:57:17;;;;;;;29.38;15.90;;;9.20;86.20;;;;;;5058967;28;20027;-49
2024/03/13 00:59:42;;;;;;;31.38;15.80;;;9.20;86.30;;;;;;5072167;28;20085;-44
2024/03/13 01:02:12;;;;;;;26.52;15.23;;;9.20;86.60;;;;;;5063715;28;20473;-46
2024/03/13 01:04:37;;;;;;;29.80;15.50;;;9.20;86.80;;;;;;5059356;28;20027;-46
2024/03/13 01:07:06;;;;;;;28.60;15.98;;;9.20;87.60;;;;;;5066136;28;20114;-45
2024/03/13 01:09:32;;;;;;;34.03;18.23;;;9.10;87.00;;;;;;5059489;28;20408;-45
2024/03/13 01:11:57;;;;;;;32.30;15.73;;;9.10;86.60;;;;;;5066849;28;20031;-48
2024/03/13 01:14:23;;;;;;;28.40;15.80;;;9.10;87.70;;;;;;5069169;28;20033;-45
2024/03/13 01:16:53;;;;;;;30.88;16.58;;;9.10;88.00;;;;;;5060817;28;20399;-47
2024/03/13 01:19:22;;;;;;;32.83;15.68;;;9.10;88.10;;;;;;5063560;28;20036;-45
2024/03/13 01:21:52;;;;;;;27.52;14.25;;;9.10;88.30;;;;;;5058701;28;20028;-45
2024/03/13 01:24:18;;;;;;;28.58;15.52;;;9.10;89.60;;;;;;5059055;28;20666;-46
2024/03/13 01:26:44;;;;;;;27.88;15.32;;;9.10;89.60;;;;;;5058949;28;20032;-46
2024/03/13 01:29:09;;;;;;;30.45;16.60;;;9.00;89.70;;;;;;5063133;28;20024;-44
2024/03/13 01:31:35;;;;;;;34.03;16.20;;;9.00;89.40;;;;;;5063198;28;20381;-46
2024/03/13 01:34:01;;;;;;;33.70;16.50;;;9.00;90.40;;;;;;5067163;28;20028;-47
2024/03/13 01:39:12;;;;;;;26.92;14.23;;;9.00;90.20;;;;;;5057245;28;20073;-46
2024/03/13 01:55:36;;;;;;;31.33;16.13;;;8.90;90.90;;;;;;5061286;28;20040;-44
2024/03/13 02:03:14;;;;;;;26.92;13.93;;;8.90;91.00;;;;;;5060180;28;20404;-44
2024/03/13 02:05:42;;;;;;;30.42;15.32;;;8.90;91.30;;;;;;5062724;28;20021;-45
2024/03/13 02:08:10;;;;;;;25.65;14.10;;;8.90;91.30;;;;;;5063824;28;20045;-44
2024/03/13 02:10:36;;;;;;;27.40;14.52;;;8.90;91.40;;;;;;5067589;28;20040;-47
2024/03/13 02:13:20;;;;;;;31.15;14.80;;;8.90;91.50;;;;;;5075134;28;20085;-45
2024/03/13 02:15:45;;;;;;;30.70;15.48;;;8.80;91.50;;;;;;5059108;28;20496;-45
2024/03/13 02:18:16;;;;;;;33.55;16.70;;;8.80;91.80;;;;;;5072278;28;20043;-47
2024/03/13 02:20:43;;;;;;;23.35;13.18;;;8.80;91.70;;;;;;5064478;28;20036;-44
2024/03/13 02:23:09;;;;;;;25.27;14.43;;;8.80;92.10;;;;;;5067948;28;20027;-47
2024/03/13 02:25:35;;;;;;;22.85;12.63;;;8.80;92.00;;;;;;5066264;28;20028;-48
2024/03/13 02:28:01;;;;;;;30.38;15.57;;;8.80;92.10;;;;;;5066241;28;20035;-48
2024/03/13 02:30:27;;;;;;;30.55;14.20;;;8.80;92.10;;;;;;5061552;28;20043;-46
2024/03/13 02:32:54;;;;;;;26.52;13.60;;;8.70;92.40;;;;;;5061894;28;20104;-47
2024/03/13 02:35:20;;;;;;;31.27;14.90;;;8.80;92.40;;;;;;5066346;28;20024;-45
2024/03/13 02:37:45;;;;;;;25.67;14.18;;;8.70;92.30;;;;;;5063436;28;20289;-44
2024/03/13 02:40:17;;;;;;;23.25;11.85;;;8.70;92.50;;;;;;5062474;28;20050;-45
2024/03/13 02:42:46;;;;;;;28.58;14.70;;;8.70;92.40;;;;;;5063334;28;20129;-46
2024/03/13 02:45:13;;;;;;;23.90;13.75;;;8.70;92.70;;;;;;5060456;28;20051;-48
2024/03/13 02:47:42;;;;;;;29.08;14.60;;;8.70;92.70;;;;;;5069759;28;20059;-48
2024/03/13 02:50:14;;;;;;;28.80;14.63;;;8.70;92.70;;;;;;5066028;28;20036;-47
2024/03/13 02:52:40;;;;;;;23.75;13.43;;;8.70;92.80;;;;;;5061893;28;20099;-49
2024/03/13 02:55:06;;;;;;;27.95;13.75;;;8.70;93.10;;;;;;5069627;28;20182;-49
2024/03/13 02:57:32;;;;;;;26.95;14.27;;;8.70;93.10;;;;;;5069842;28;20020;-45
2024/03/13 02:59:58;;;;;;;33.78;15.80;;;8.70;93.30;;;;;;5070179;28;20028;-46
2024/03/13 03:02:24;;;;;;;28.60;14.60;;;8.70;93.40;;;;;;5067250;28;20029;-45
2024/03/13 03:04:50;;;;;;;25.13;13.70;;;8.70;93.50;;;;;;5065750;28;20066;-49
2024/03/13 03:07:16;;;;;;;29.10;14.73;;;8.60;93.50;;;;;;5069305;28;20028;-46
2024/03/13 03:09:41;;;;;;;28.60;14.77;;;8.60;93.60;;;;;;5062121;28;20493;-49
2024/03/13 03:12:08;;;;;;;27.17;14.73;;;8.60;93.80;;;;;;5072974;28;20055;-53
2024/03/13 03:14:35;;;;;;;28.63;14.25;;;8.60;93.80;;;;;;5076958;28;20016;-50
2024/03/13 03:17:00;;;;;;;31.05;14.70;;;8.60;94.10;;;;;;5071240;28;20027;-48
2024/03/13 03:19:26;;;;;;;28.98;14.25;;;8.60;94.00;;;;;;5069064;28;20396;-50
2024/03/13 03:21:53;;;;;;;26.80;14.05;;;8.60;93.90;;;;;;5076524;28;20506;-50
2024/03/13 03:24:19;;;;;;;26.75;12.93;;;8.60;94.00;;;;;;5064479;28;20066;-52
2024/03/13 03:26:44;;;;;;;30.95;14.50;;;8.60;94.30;;;;;;5062404;28;20021;-52
2024/03/13 03:29:10;;;;;;;25.75;13.10;;;8.50;94.30;;;;;;5060884;28;20103;-52
2024/03/13 03:31:35;;;;;;;27.65;14.00;;;8.50;94.50;;;;;;5066858;28;20048;-48
2024/03/13 03:34:02;;;;;;;31.55;14.48;;;8.50;94.40;;;;;;5060794;28;20439;-52
2024/03/13 03:36:28;;;;;;;26.80;13.90;;;8.50;94.40;;;;;;5063450;28;20031;-50
2024/03/13 03:38:53;;;;;;;28.35;13.88;;;8.40;94.40;;;;;;5059126;28;20089;-45
2024/03/13 03:41:18;;;;;;;28.15;13.65;;;8.40;94.50;;;;;;5057651;28;20021;-49
2024/03/13 03:43:44;;;;;;;28.70;15.02;;;8.40;94.90;;;;;;5060506;28;20161;-50
2024/03/13 03:46:12;;;;;;;26.30;14.15;;;8.40;94.80;;;;;;5062252;28;20039;-52
2024/03/13 03:48:40;;;;;;;29.38;14.48;;;8.40;95.10;;;;;;5060215;28;20046;-48
2024/03/13 03:51:06;;;;;;;28.02;14.55;;;8.30;95.40;;;;;;5060141;28;20032;-49
2024/03/13 03:53:31;;;;;;;27.98;14.27;;;8.30;95.50;;;;;;5071418;28;20028;-51
2024/03/13 03:55:58;;;;;;;27.83;14.95;;;8.20;95.80;;;;;;5066775;28;20284;-50
2024/03/13 03:58:24;;;;;;;28.83;14.80;;;8.20;96.20;;;;;;5060581;28;20020;-51
2024/03/13 04:00:49;;;;;;;29.83;13.45;;;8.20;96.10;;;;;;5060006;28;20499;-51
2024/03/13 04:03:15;;;;;;;35.40;15.27;;;8.20;96.00;;;;;;5064244;28;20021;-51
2024/03/13 04:05:40;;;;;;;31.15;15.68;;;8.10;96.40;;;;;;5062254;28;20016;-48
2024/03/13 04:08:06;;;;;;;28.77;15.23;;;8.10;96.10;;;;;;5061766;28;20068;-52
2024/03/13 04:10:31;;;;;;;28.42;14.18;;;8.10;95.80;;;;;;5068818;28;20063;-49
2024/03/13 04:13:00;;;;;;;26.52;14.93;;;8.00;96.40;;;;;;5065616;28;20028;-52
2024/03/13 04:15:26;;;;;;;28.13;14.25;;;8.00;96.80;;;;;;5070543;28;20099;-50
2024/03/13 04:17:51;;;;;;;29.45;14.60;;;8.00;97.10;;;;;;5069265;28;20127;-47
2024/03/13 04:20:21;;;;;;;28.48;14.75;;;8.00;97.20;;;;;;5069308;28;20031;-52
2024/03/13 04:22:47;;;;;;;27.63;14.13;;;8.00;97.40;;;;;;5061772;28;20025;-52
2024/03/13 04:25:14;;;;;;;27.67;13.57;;;8.00;97.40;;;;;;5064605;28;20767;-53
2024/03/13 04:27:40;;;;;;;33.38;15.55;;;8.00;97.60;;;;;;5066144;28;20532;-47
2024/03/13 04:30:06;;;;;;;26.52;13.23;;;7.90;97.80;;;;;;5060361;28;20039;-48
2024/03/13 04:32:31;;;;;;;28.33;14.52;;;7.90;97.90;;;;;;5063003;28;20139;-52
2024/03/13 04:35:00;;;;;;;27.38;14.98;;;7.90;97.90;;;;;;5067443;28;20024;-55
2024/03/13 04:37:25;;;;;;;28.33;14.25;;;7.90;97.90;;;;;;5071694;28;20025;-54
2024/03/13 04:39:51;;;;;;;29.00;14.20;;;7.80;97.80;;;;;;5067116;28;20107;-54
2024/03/13 04:42:17;;;;;;;26.27;13.68;;;7.80;98.10;;;;;;5058387;28;20016;-53
2024/03/13 04:44:44;;;;;;;34.30;16.67;;;7.80;98.10;;;;;;5068141;28;20077;-53
2024/03/13 04:47:10;;;;;;;30.00;15.13;;;7.80;98.20;;;;;;5060220;28;20027;-54
2024/03/13 04:49:37;;;;;;;33.50;16.05;;;7.70;98.40;;;;;;5063673;28;20063;-54
2024/03/13 04:52:03;;;;;;;29.58;15.32;;;7.70;98.90;;;;;;5060454;28;20028;-54
2024/03/13 04:54:29;;;;;;;32.08;14.68;;;7.60;99.00;;;;;;5062951;28;20013;-49
2024/03/13 04:56:54;;;;;;;27.95;14.20;;;7.60;99.30;;;;;;5069970;28;20016;-55
2024/03/13 04:59:20;;;;;;;32.90;16.17;;;7.50;99.40;;;;;;5068296;28;20439;-50
2024/03/13 05:01:45;;;;;;;27.63;14.68;;;7.40;99.30;;;;;;5065284;28;20127;-51
2024/03/13 05:04:11;;;;;;;34.33;16.13;;;7.30;99.00;;;;;;5062115;28;20054;-48
2024/03/13 05:06:36;;;;;;;26.92;14.07;;;7.20;99.30;;;;;;5059281;28;20189;-51
2024/03/13 05:09:03;;;;;;;29.80;14.13;;;7.10;99.50;;;;;;5067397;28;20632;-53
2024/03/13 05:11:29;;;;;;;28.98;13.40;;;7.00;99.90;;;;;;5057583;28;20036;-52
2024/03/13 05:13:54;;;;;;;29.80;14.25;;;6.80;99.80;;;;;;5058528;28;20553;-54
2024/03/13 05:16:20;;;;;;;25.77;13.38;;;6.70;99.90;;;;;;5059917;28;20024;-55
2024/03/13 05:18:45;;;;;;;30.20;14.88;;;6.60;99.90;;;;;;5062182;28;20029;-55
2024/03/13 05:21:12;;;;;;;28.63;14.23;;;6.50;99.90;;;;;;5059431;28;20029;-53
2024/03/13 05:23:38;;;;;;;32.60;15.30;;;6.40;99.90;;;;;;5068999;28;20020;-52
2024/03/13 05:26:04;;;;;;;27.13;13.55;;;6.30;99.90;;;;;;5073763;28;20031;-55
2024/03/13 05:28:31;;;;;;;30.80;13.52;;;6.20;99.90;;;;;;5071791;28;20028;-52
2024/03/13 05:30:56;;;;;;;31.35;14.73;;;6.10;99.90;;;;;;5063646;28;20036;-55
2024/03/13 05:33:22;;;;;;;34.55;15.27;;;6.00;99.90;;;;;;5063486;28;20074;-55
2024/03/13 05:35:47;;;;;;;27.88;13.38;;;6.00;99.90;;;;;;5066084;28;20029;-56
2024/03/13 05:38:13;;;;;;;33.30;15.15;;;5.90;99.90;;;;;;5063612;28;20185;-54
2024/03/13 05:40:38;;;;;;;41.00;16.80;;;5.80;99.90;;;;;;5055182;28;20024;-51
2024/03/13 05:43:04;;;;;;;40.55;17.77;;;5.70;99.90;;;;;;5061474;28;20043;-52
2024/03/13 05:45:29;;;;;;;33.05;14.68;;;5.70;99.90;;;;;;5065977;28;20017;-52
2024/03/13 05:47:55;;;;;;;31.17;14.95;;;5.70;99.90;;;;;;5068852;28;20039;-54
2024/03/13 05:50:20;;;;;;;29.27;15.05;;;5.60;99.90;;;;;;5065176;28;20028;-53
2024/03/13 05:52:46;;;;;;;36.45;16.17;;;5.60;99.90;;;;;;5071130;28;20050;-51
2024/03/13 05:55:13;;;;;;;31.75;14.70;;;5.60;99.90;;;;;;5072772;28;20035;-50
2024/03/13 05:57:38;;;;;;;36.53;15.68;;;5.70;99.90;;;;;;5063234;28;20055;-53
2024/03/13 06:00:17;;;;;;;31.63;15.07;;;5.70;99.90;;;;;;5063671;28;20056;-53
2024/03/13 06:02:43;;;;;;;37.35;17.27;;;5.80;99.90;;;;;;5071862;28;20473;-53
2024/03/13 06:05:11;;;;;;;33.47;16.65;;;5.90;99.90;;;;;;5073990;28;20027;-49
2024/03/13 06:07:40;;;;;;;31.70;16.55;;;6.10;99.90;;;;;;5067125;28;20593;-53
2024/03/13 06:10:08;;;;;;;37.63;18.17;;;6.20;99.90;;;;;;5061667;28;20029;-51
2024/03/13 06:12:34;;;;;;;31.00;15.90;;;6.40;99.90;;;;;;5066032;28;20024;-52
2024/03/13 06:15:02;;;;;;;32.72;16.15;;;6.70;99.90;;;;;;5066208;28;20029;-49
2024/03/13 06:17:28;;;;;;;39.50;17.38;;;7.10;99.90;;;;;;5070705;28;20078;-51
2024/03/13 06:19:53;;;;;;;32.88;15.70;;;7.40;99.90;;;;;;5062018;28;20439;-49
2024/03/13 06:22:19;;;;;;;31.10;16.17;;;7.70;99.90;;;;;;5064123;28;20033;-54
2024/03/13 06:24:46;;;;;;;29.42;15.32;;;8.00;99.90;;;;;;5061965;28;20082;-49
2024/03/13 06:27:15;;;;;;;29.77;15.70;;;8.30;99.90;;;;;;5069131;28;20519;-53
2024/03/13 06:29:58;;;;;;;27.77;15.45;;;8.60;99.90;;;;;;5072640;28;20331;-47
2024/03/13 06:32:25;;;;;;;27.95;14.30;;;9.00;99.90;;;;;;5059015;28;20028;-48
2024/03/13 06:34:51;;;;;;;29.98;14.18;;;9.50;99.90;;;;;;5071676;28;20434;-50
2024/03/13 06:37:17;;;;;;;23.02;13.55;;;9.90;99.00;;;;;;5070261;28;20030;-46
2024/03/13 06:39:43;;;;;;;22.23;13.43;;;10.20;98.40;;;;;;5071376;28;20081;-52
2024/03/13 06:42:11;;;;;;;22.23;13.10;;;10.50;97.90;;;;;;5066154;28;20020;-51
2024/03/13 06:44:37;;;;;;;25.60;14.68;;;10.80;97.20;;;;;;5071184;28;20017;-49
2024/03/13 06:47:03;;;;;;;23.52;14.43;;;11.10;96.60;;;;;;5072835;28;20020;-46
2024/03/13 06:49:28;;;;;;;26.65;14.02;;;11.50;95.90;;;;;;5069996;28;20040;-47
2024/03/13 06:51:54;;;;;;;25.20;15.00;;;11.90;95.10;;;;;;5072097;28;20020;-48
2024/03/13 06:54:19;;;;;;;24.00;13.88;;;12.30;93.60;;;;;;5060620;28;20052;-51
2024/03/13 06:56:47;;;;;;;21.88;13.77;;;12.70;92.50;;;;;;5061552;28;20497;-49
2024/03/13 06:59:16;;;;;;;28.70;15.65;;;12.90;91.70;;;;;;5061315;28;20033;-49
2024/03/13 07:01:48;;;;;;;24.58;15.00;;;13.30;91.40;;;;;;5065522;28;20240;-49
2024/03/13 07:04:13;;;;;;;24.63;15.93;;;13.60;91.70;;;;;;5061516;28;20031;-46
2024/03/13 07:06:41;;;;;;;25.35;14.65;;;13.80;90.30;;;;;;5061278;28;20032;-51
2024/03/13 07:09:07;;;;;;;21.08;13.73;;;14.10;89.20;;;;;;5063668;28;20041;-46
2024/03/13 07:11:32;;;;;;;20.75;14.32;;;14.40;88.00;;;;;;5066299;28;20032;-49
2024/03/13 07:13:58;;;;;;;22.33;14.30;;;14.70;87.20;;;;;;5065527;28;20078;-47
2024/03/13 07:16:23;;;;;;;18.63;12.65;;;14.90;84.70;;;;;;5067588;28;20020;-52
2024/03/13 07:18:49;;;;;;;22.33;13.27;;;15.10;83.70;;;;;;5067178;28;20086;-50
2024/03/13 07:21:14;;;;;;;21.60;13.48;;;15.40;84.40;;;;;;5069494;28;20038;-47
2024/03/13 07:23:40;;;;;;;20.10;13.77;;;15.50;82.90;;;;;;5065578;28;20039;-51
2024/03/13 07:26:08;;;;;;;18.27;12.35;;;15.80;81.80;;;;;;5067237;28;20031;-50
2024/03/13 07:28:37;;;;;;;25.48;16.33;;;16.00;80.10;;;;;;5058818;28;20044;-48
2024/03/13 07:31:03;;;;;;;21.02;13.90;;;16.10;79.50;;;;;;5069741;28;20556;-50
2024/03/13 07:33:30;;;;;;;21.08;13.85;;;16.30;78.60;;;;;;5067257;28;20020;-53
2024/03/13 07:35:56;;;;;;;20.85;15.43;;;16.40;76.70;;;;;;5062944;28;20056;-49
2024/03/13 07:38:21;;;;;;;23.75;16.02;;;16.60;77.10;;;;;;5067104;28;20059;-47
2024/03/13 07:40:47;;;;;;;19.75;14.23;;;16.80;76.20;;;;;;5055973;28;20037;-49
2024/03/13 07:43:12;;;;;;;27.70;18.45;;;16.90;74.70;;;;;;5070605;28;20031;-48
2024/03/13 07:45:42;;;;;;;24.77;17.70;;;17.00;74.00;;;;;;5062221;28;20036;-49
2024/03/13 07:48:08;;;;;;;24.45;16.60;;;17.10;73.30;;;;;;5062814;28;20407;-46
2024/03/13 07:50:39;;;;;;;22.80;15.18;;;17.30;72.80;;;;;;5064595;28;20112;-52
2024/03/13 07:53:05;;;;;;;24.77;16.83;;;17.50;70.90;;;;;;5064404;28;20012;-49
2024/03/13 07:55:33;;;;;;;24.48;15.68;;;17.70;71.20;;;;;;5062782;28;20024;-47
2024/03/13 07:58:00;;;;;;;24.52;14.77;;;17.80;70.50;;;;;;5065862;28;20075;-48
2024/03/13 08:00:27;;;;;;;23.63;16.75;;;17.90;69.20;;;;;;5064352;28;20016;-50
2024/03/13 08:02:56;;;;;;;23.30;15.63;;;18.00;67.50;;;;;;5070170;28;20430;-50
2024/03/13 08:05:24;;;;;;;23.42;16.25;;;18.10;66.80;;;;;;5074545;28;20027;-50
2024/03/13 08:07:50;;;;;;;22.40;15.70;;;18.20;66.80;;;;;;5071202;28;20279;-49
2024/03/13 08:10:17;;;;;;;20.48;14.68;;;18.20;65.40;;;;;;5070122;28;20452;-51
2024/03/13 08:12:43;;;;;;;19.58;13.93;;;18.30;64.90;;;;;;5064334;28;20044;-51
2024/03/13 08:15:09;;;;;;;19.90;13.95;;;18.30;64.70;;;;;;5071172;28;20116;-50
2024/03/13 08:17:36;;;;;;;19.15;14.38;;;18.50;64.60;;;;;;5069280;28;20459;-48
2024/03/13 08:20:01;;;;;;;21.23;16.08;;;18.70;63.70;;;;;;5070206;28;20027;-49
2024/03/13 08:22:27;;;;;;;22.65;16.33;;;19.10;63.00;;;;;;5061891;28;20532;-50
2024/03/13 08:24:52;;;;;;;20.90;15.55;;;19.20;61.10;;;;;;5068750;28;20029;-51
2024/03/13 08:27:19;;;;;;;22.33;15.90;;;19.30;60.30;;;;;;5067645;28;20121;-51
2024/03/13 08:29:44;;;;;;;18.67;13.00;;;19.30;59.10;;;;;;5062652;28;20131;-52
2024/03/13 08:32:10;;;;;;;21.23;14.10;;;19.30;57.80;;;;;;5064873;28;20041;-53
2024/03/13 08:34:35;;;;;;;18.60;13.10;;;19.40;58.10;;;;;;5062493;28;20120;-49
2024/03/13 08:37:03;;;;;;;19.48;12.93;;;19.40;57.50;;;;;;5064966;28;20119;-51
2024/03/13 08:39:28;;;;;;;16.23;12.35;;;19.40;57.50;;;;;;5056552;28;20032;-51
2024/03/13 08:41:54;;;;;;;19.13;13.43;;;19.40;56.80;;;;;;5063787;28;20451;-49
2024/03/13 08:44:20;;;;;;;18.90;12.77;;;19.50;56.00;;;;;;5069282;28;20028;-52
2024/03/13 08:46:46;;;;;;;18.60;13.90;;;19.50;55.50;;;;;;5070158;28;20557;-50
2024/03/13 08:49:11;;;;;;;20.88;13.57;;;19.50;55.10;;;;;;5064172;28;20079;-47
2024/03/13 08:51:37;;;;;;;17.67;13.30;;;19.50;54.20;;;;;;5062075;28;20082;-51
2024/03/13 08:54:05;;;;;;;14.95;11.38;;;19.60;53.00;;;;;;5060064;28;20028;-52
2024/03/13 08:56:37;;;;;;;15.27;11.60;;;19.60;52.60;;;;;;5066576;28;20028;-48
2024/03/13 08:59:02;;;;;;;19.25;14.00;;;19.50;51.80;;;;;;5063495;28;20662;-51
2024/03/13 09:01:28;;;;;;;14.70;11.35;;;19.30;52.10;;;;;;5065278;28;20082;-51
2024/03/13 09:03:53;;;;;;;19.25;12.43;;;19.00;50.20;;;;;;5063026;28;20085;-52
2024/03/13 09:06:19;;;;;;;15.98;11.50;;;18.60;49.30;;;;;;5065666;28;20055;-51
2024/03/13 09:08:45;;;;;;;18.88;11.68;;;18.30;49.00;;;;;;5058016;28;20048;-46
2024/03/13 09:11:12;;;;;;;18.35;12.65;;;18.00;48.70;;;;;;5059084;28;20057;-52
2024/03/13 09:13:40;;;;;;;18.27;11.57;;;17.80;48.40;;;;;;5059258;28;20080;-46
2024/03/13 09:16:05;;;;;;;18.10;12.43;;;17.60;48.00;;;;;;5059027;28;20108;-48
2024/03/13 09:18:32;;;;;;;18.02;13.02;;;17.70;47.80;;;;;;5060484;28;20149;-45
2024/03/13 09:20:57;;;;;;;18.13;11.95;;;17.60;47.60;;;;;;5056710;28;20115;-47
2024/03/13 09:23:23;;;;;;;16.63;11.80;;;17.40;47.00;;;;;;5065399;28;20498;-49
2024/03/13 09:25:48;;;;;;;19.70;11.55;;;17.10;46.50;;;;;;5065107;28;20429;-49
2024/03/13 09:28:14;;;;;;;15.80;10.68;;;17.10;46.70;;;;;;5067559;28;20031;-47
2024/03/13 09:30:40;;;;;;;18.15;11.63;;;16.90;46.80;;;;;;5062720;28;20260;-49
2024/03/13 09:33:08;;;;;;;16.95;10.98;;;16.70;46.50;;;;;;5061098;28;20032;-47
2024/03/13 09:35:34;;;;;;;18.25;12.52;;;16.60;46.70;;;;;;5065014;28;20496;-46
2024/03/13 09:37:59;;;;;;;17.92;11.30;;;16.70;47.10;;;;;;5070200;28;20082;-46
2024/03/13 09:40:25;;;;;;;18.15;11.75;;;16.80;47.40;;;;;;5057152;28;20078;-48
2024/03/13 09:42:54;;;;;;;15.13;9.90;;;17.00;47.40;;;;;;5058620;28;20119;-45
2024/03/13 09:45:25;;;;;;;14.30;10.18;;;17.40;47.20;;;;;;5066902;28;20417;-48
2024/03/13 09:47:52;;;;;;;13.95;10.18;;;17.70;47.70;;;;;;5061433;28;20537;-47
2024/03/13 09:50:19;;;;;;;14.43;10.68;;;18.00;47.40;;;;;;5058837;28;20544;-48
2024/03/13 09:52:47;;;;;;;17.98;12.50;;;18.20;47.90;;;;;;5063041;28;20024;-46
2024/03/13 09:55:15;;;;;;;17.20;11.75;;;18.50;47.70;;;;;;5062295;28;20095;-43
2024/03/13 09:57:41;;;;;;;19.13;12.23;;;18.70;46.50;;;;;;5064702;28;20056;-45
2024/03/13 10:00:18;;;;;;;16.45;11.70;;;18.70;45.50;;;;;;5058490;28;20106;-47
2024/03/13 10:02:49;;;;;;;17.15;12.32;;;18.70;44.50;;;;;;5058672;28;20024;-48
2024/03/13 10:05:18;;;;;;;14.55;10.07;;;18.40;42.10;;;;;;5058413;28;20021;-50
2024/03/13 10:07:45;;;;;;;11.43;8.02;;;18.40;43.60;;;;;;5062481;28;20032;-48
2024/03/13 10:10:26;;;;;;;15.80;11.02;;;18.40;43.80;;;;;;5065210;28;20033;-46
2024/03/13 10:12:55;;;;;;;16.25;11.32;;;18.40;43.20;;;;;;5065062;28;20028;-46
2024/03/13 10:15:21;;;;;;;13.95;9.75;;;18.40;42.50;;;;;;5061046;28;20066;-45
2024/03/13 10:18:00;;;;;;;15.02;9.20;;;18.30;40.30;;;;;;5062723;28;20048;-46
2024/03/13 10:20:33;;;;;;;14.65;9.35;;;18.20;38.90;;;;;;5060596;28;20024;-45
2024/03/13 10:23:01;;;;;;;12.43;9.35;;;18.00;39.40;;;;;;5059336;28;20089;-46
2024/03/13 10:25:29;;;;;;;15.30;10.45;;;17.90;40.10;;;;;;5064737;28;20479;-45
2024/03/13 10:27:56;;;;;;;13.73;9.77;;;17.70;40.00;;;;;;5056378;28;20070;-45
2024/03/13 10:30:22;;;;;;;12.23;8.98;;;17.40;39.60;;;;;;5064642;28;20115;-47
2024/03/13 10:32:48;;;;;;;18.52;10.93;;;17.10;39.40;;;;;;5062363;28;20127;-45
2024/03/13 10:35:15;;;;;;;17.00;10.82;;;16.90;39.10;;;;;;5069960;28;20063;-47
2024/03/13 10:37:42;;;;;;;14.48;10.55;;;16.90;38.90;;;;;;5061931;28;20024;-44
2024/03/13 10:40:08;;;;;;;13.90;10.02;;;16.80;38.80;;;;;;5055750;28;20073;-44
2024/03/13 10:42:33;;;;;;;14.80;10.57;;;16.80;38.40;;;;;;5066053;28;20462;-46
2024/03/13 10:44:59;;;;;;;14.70;9.82;;;16.70;38.30;;;;;;5068005;28;20179;-47
2024/03/13 10:47:28;;;;;;;15.77;10.27;;;16.60;38.10;;;;;;5062108;28;20021;-48
2024/03/13 10:49:55;;;;;;;17.15;10.20;;;16.70;38.00;;;;;;5061654;28;20531;-47
2024/03/13 10:52:21;;;;;;;15.68;10.15;;;16.70;37.90;;;;;;5064558;28;20300;-45
2024/03/13 10:54:46;;;;;;;21.80;11.60;;;16.70;37.70;;;;;;5061354;28;20025;-44
2024/03/13 10:57:17;;;;;;;16.75;10.93;;;16.50;37.30;;;;;;5062121;28;20048;-46
2024/03/13 10:59:44;;;;;;;19.85;12.57;;;16.40;37.30;;;;;;5062583;28;20040;-44
2024/03/13 11:02:13;;;;;;;19.42;12.70;;;16.20;37.20;;;;;;5068820;28;20043;-48
2024/03/13 11:04:40;;;;;;;14.73;9.65;;;16.10;37.30;;;;;;5069702;28;20383;-44
2024/03/13 11:07:12;;;;;;;16.85;10.85;;;16.00;37.60;;;;;;5063298;28;20103;-44
2024/03/13 11:09:38;;;;;;;17.20;10.82;;;15.80;37.90;;;;;;5063793;28;20044;-47
2024/03/13 11:12:10;;;;;;;16.63;10.30;;;15.80;37.80;;;;;;5062779;28;20020;-44
2024/03/13 11:14:37;;;;;;;14.10;9.48;;;15.80;38.00;;;;;;5061735;28;20411;-44
2024/03/13 11:17:05;;;;;;;14.00;8.63;;;15.80;38.00;;;;;;5064536;28;20028;-44
2024/03/13 11:19:33;;;;;;;14.88;9.20;;;15.80;38.10;;;;;;5070439;28;20467;-44
2024/03/13 11:22:00;;;;;;;13.93;8.82;;;15.90;38.20;;;;;;5063581;28;20511;-46
2024/03/13 11:24:29;;;;;;;13.32;8.88;;;15.90;37.90;;;;;;5062908;28;20013;-47
2024/03/13 11:27:05;;;;;;;16.00;9.68;;;16.00;37.80;;;;;;5067017;28;20034;-44
2024/03/13 11:29:40;;;;;;;17.48;9.75;;;15.90;37.70;;;;;;5063729;28;20028;-44
2024/03/13 11:32:08;;;;;;;16.70;8.73;;;15.90;37.60;;;;;;5068754;28;20499;-48
2024/03/13 11:34:35;;;;;;;16.92;10.15;;;15.80;37.80;;;;;;5065793;28;20025;-45
2024/03/13 11:37:03;;;;;;;18.45;10.38;;;15.70;37.80;;;;;;5066341;28;20427;-44
2024/03/13 11:39:29;;;;;;;17.80;10.32;;;15.70;38.20;;;;;;5059373;28;20491;-44
2024/03/13 11:42:06;;;;;;;17.58;10.15;;;15.60;38.20;;;;;;5060691;28;20048;-44
2024/03/13 11:44:32;;;;;;;17.15;10.88;;;15.50;38.70;;;;;;5060825;28;20471;-46
2024/03/13 11:47:00;;;;;;;16.42;9.55;;;15.40;38.40;;;;;;5064714;28;20020;-44
2024/03/13 11:49:25;;;;;;;17.38;10.73;;;15.50;38.60;;;;;;5061510;28;20048;-44
2024/03/13 11:52:03;;;;;;;18.00;11.23;;;15.60;38.50;;;;;;5065773;28;20083;-44
2024/03/13 11:54:32;;;;;;;14.80;8.30;;;15.60;39.10;;;;;;5070378;28;20069;-44
2024/03/13 11:57:06;;;;;;;14.55;8.77;;;15.60;38.20;;;;;;5065274;28;20488;-44
2024/03/13 11:59:51;;;;;;;17.92;11.05;;;15.60;38.20;;;;;;5073385;28;20019;-44
2024/03/13 12:02:30;;;;;;;15.82;10.20;;;15.60;38.50;;;;;;5085452;28;20020;-44
2024/03/13 12:05:06;;;;;;;16.75;10.43;;;15.40;38.40;;;;;;5061755;28;20021;-44
2024/03/13 12:07:44;;;;;;;17.95;10.68;;;15.30;38.40;;;;;;5064631;28;20019;-45
2024/03/13 12:10:17;;;;;;;22.25;10.70;;;15.20;38.30;;;;;;5064484;28;20115;-45
2024/03/13 12:12:42;;;;;;;14.40;9.30;;;15.10;38.30;;;;;;5070699;28;20012;-45
2024/03/13 12:15:10;;;;;;;18.50;9.93;;;15.00;38.30;;;;;;5064820;28;20036;-45
2024/03/13 12:17:36;;;;;;;13.45;9.07;;;15.00;38.30;;;;;;5068560;28;20027;-44
2024/03/13 12:20:03;;;;;;;14.65;9.50;;;15.00;38.40;;;;;;5068569;28;20484;-44
2024/03/13 12:22:30;;;;;;;15.82;9.73;;;15.10;38.00;;;;;;5064279;28;20031;-45
2024/03/13 12:24:56;;;;;;;15.77;8.93;;;15.10;38.00;;;;;;5070194;28;20012;-45
2024/03/13 12:27:21;;;;;;;13.55;8.85;;;15.10;38.10;;;;;;5063755;28;20077;-45
2024/03/13 12:29:48;;;;;;;13.63;8.13;;;15.10;38.00;;;;;;5061470;28;20115;-45
2024/03/13 12:32:14;;;;;;;12.38;8.23;;;15.30;38.00;;;;;;5071657;28;20496;-44
2024/03/13 12:34:43;;;;;;;13.40;8.50;;;15.40;37.70;;;;;;5066580;28;20039;-44
2024/03/13 12:37:15;;;;;;;14.48;9.10;;;15.50;37.80;;;;;;5059563;28;20012;-46
2024/03/13 12:39:41;;;;;;;15.70;9.50;;;15.50;37.60;;;;;;5054722;28;20039;-44
2024/03/13 12:42:09;;;;;;;11.93;8.20;;;15.40;37.60;;;;;;5067813;28;20020;-44
2024/03/13 12:44:35;;;;;;;12.38;7.20;;;15.40;37.80;;;;;;5063845;28;20376;-44
2024/03/13 12:47:00;;;;;;;12.55;7.72;;;15.50;38.00;;;;;;5061492;28;20664;-48
2024/03/13 12:49:26;;;;;;;15.05;8.88;;;15.70;37.90;;;;;;5059537;28;20046;-44
2024/03/13 12:51:53;;;;;;;16.10;9.82;;;15.60;37.70;;;;;;5058418;28;20022;-46
2024/03/13 12:54:18;;;;;;;15.27;9.10;;;15.50;37.50;;;;;;5063690;28;20028;-44